createdAt,value
2019-02-17T15:04:08.737Z,50.98
2019-02-17T15:06:40.827Z,51.41
2019-02-17T15:09:14.304Z,52.01
2019-02-17T15:11:48.332Z,52.67
2019-02-17T15:14:21.377Z,51.90
2019-02-17T15:16:54.439Z,53.18
2019-02-17T15:19:28.015Z,53.12
2019-02-17T15:22:01.491Z,53.01
2019-02-17T15:24:34.481Z,52.73
2019-02-17T15:27:07.224Z,52.82
2019-02-17T15:29:40.546Z,53.21
2019-02-17T15:32:14.166Z,52.95
2019-02-17T15:34:48.203Z,52.62
2019-02-17T15:37:21.601Z,52.83
2019-02-17T15:39:55.377Z,52.90
2019-02-17T15:42:29.003Z,52.93
2019-02-17T15:45:03.346Z,52.99
2019-02-17T15:47:36.668Z,53.03
2019-02-17T15:50:09.722Z,53.23
2019-02-17T15:52:43.229Z,53.54
2019-02-17T15:55:16.736Z,54.00
2019-02-17T15:57:50.667Z,54.58
2019-02-17T16:00:23.751Z,54.60
2019-02-17T16:02:57.118Z,55.61
2019-02-17T16:05:30.604Z,54.88
2019-02-17T16:08:04.853Z,55.64
2019-02-17T16:10:38.741Z,56.04
2019-02-17T16:13:12.134Z,55.77
2019-02-17T16:15:46.144Z,56.29
2019-02-17T16:18:19.555Z,56.64
2019-02-17T16:20:52.328Z,57.43
2019-02-17T16:23:25.500Z,57.33
2019-02-17T16:25:59.021Z,57.28
2019-02-17T16:28:32.447Z,57.33
2019-02-17T16:31:05.257Z,58.12
2019-02-17T16:33:38.198Z,58.59
2019-02-17T16:36:10.794Z,58.90
2019-02-17T16:38:44.164Z,59.03
2019-02-17T16:41:17.317Z,59.72
2019-02-17T16:43:50.623Z,59.82
2019-02-17T16:46:24.154Z,60.08
2019-02-17T16:48:57.239Z,60.14
2019-02-17T16:51:30.234Z,60.66
2019-02-17T16:54:03.222Z,60.12
2019-02-17T16:56:36.949Z,60.64
2019-02-17T16:59:10.533Z,60.45
2019-02-17T17:01:43.486Z,60.52
2019-02-17T17:04:16.534Z,60.88
2019-02-17T17:06:50.067Z,60.93
2019-02-17T17:09:23.227Z,60.99
2019-02-17T17:11:56.398Z,61.47
2019-02-17T17:14:30.091Z,61.14
2019-02-17T17:17:02.890Z,60.87
2019-02-17T17:19:37.480Z,61.17
2019-02-17T17:22:10.989Z,61.37
2019-02-17T17:24:44.545Z,61.52
2019-02-17T17:27:19.102Z,61.43
2019-02-17T17:29:52.608Z,61.91
2019-02-17T17:32:26.130Z,62.28
2019-02-17T17:34:59.476Z,62.39
2019-02-17T17:37:32.478Z,62.88
2019-02-17T17:40:08.550Z,61.44
2019-02-17T17:42:42.057Z,61.25
2019-02-17T17:45:15.970Z,60.72
2019-02-17T17:47:49.773Z,61.28
2019-02-17T17:50:22.452Z,61.15
2019-02-17T17:52:55.530Z,61.53
2019-02-17T17:55:30.150Z,60.74
2019-02-17T17:58:04.298Z,60.29
2019-02-17T18:00:38.189Z,60.51
2019-02-17T18:03:11.684Z,60.36
2019-02-17T18:05:44.816Z,60.41
2019-02-17T18:08:18.456Z,60.64
2019-02-17T18:10:52.054Z,60.52
2019-02-17T18:13:24.437Z,60.24
2019-02-17T18:15:58.428Z,60.40
2019-02-17T18:18:31.136Z,59.27
2019-02-17T18:21:04.431Z,58.83
2019-02-17T18:23:37.923Z,58.67
2019-02-17T18:26:11.470Z,58.70
2019-02-17T18:28:44.952Z,58.31
2019-02-17T18:31:18.146Z,58.23
2019-02-17T18:33:50.962Z,58.47
2019-02-17T18:36:24.122Z,58.29
2019-02-17T18:38:56.919Z,58.15
2019-02-17T18:41:30.089Z,57.73
2019-02-17T18:44:02.684Z,57.57
2019-02-17T18:46:36.325Z,57.43
2019-02-17T18:49:09.969Z,57.59
2019-02-17T18:51:43.488Z,57.44
2019-02-17T18:54:16.959Z,57.94
2019-02-17T18:56:50.098Z,57.95
2019-02-17T18:59:24.201Z,58.20
2019-02-17T19:01:58.333Z,57.98
2019-02-17T19:04:31.485Z,57.73
2019-02-17T19:07:04.702Z,57.30
2019-02-17T19:09:39.067Z,56.41
2019-02-17T19:12:11.464Z,56.47
2019-02-17T19:14:44.950Z,56.43
2019-02-17T19:17:18.366Z,56.26
2019-02-17T19:19:51.885Z,56.29
2019-02-17T19:22:25.351Z,55.88
2019-02-17T19:24:58.879Z,56.53
2019-02-17T19:27:31.621Z,56.60
2019-02-17T19:30:04.888Z,56.07
2019-02-17T19:32:37.928Z,56.67
2019-02-17T19:35:11.534Z,56.49
2019-02-17T19:37:46.520Z,56.37
2019-02-17T19:40:20.133Z,56.63
2019-02-17T19:42:53.386Z,56.99
2019-02-17T19:45:26.540Z,57.37
2019-02-17T19:48:00.341Z,56.54
2019-02-17T19:50:34.216Z,56.90
2019-02-17T19:53:08.690Z,57.07
2019-02-17T19:55:41.797Z,57.36
2019-02-17T19:58:14.484Z,57.56
2019-02-17T20:00:47.951Z,57.54
2019-02-17T20:03:29.226Z,57.22
2019-02-17T20:06:03.480Z,56.98
2019-02-17T20:08:36.659Z,56.73
2019-02-17T20:11:10.408Z,55.64
2019-02-17T20:13:44.178Z,55.74
2019-02-17T20:16:17.969Z,56.40
2019-02-17T20:18:51.175Z,56.16
2019-02-17T20:21:25.156Z,57.55
2019-02-17T20:23:58.522Z,57.41
2019-02-17T20:26:32.030Z,56.23
2019-02-17T20:29:05.150Z,55.13
2019-02-17T20:31:38.740Z,56.54
2019-02-17T20:34:14.573Z,57.12
2019-02-17T20:36:48.063Z,57.10
2019-02-17T20:39:21.279Z,56.92
2019-02-17T20:41:54.691Z,57.26
2019-02-17T20:44:27.877Z,57.85
2019-02-17T20:47:00.967Z,58.17
2019-02-17T20:49:34.501Z,57.13
2019-02-17T20:52:07.986Z,56.65
2019-02-17T20:54:41.496Z,57.10
2019-02-17T20:57:15.610Z,57.10
2019-02-17T20:59:48.354Z,57.33
2019-02-17T21:02:21.790Z,57.32
2019-02-17T21:04:55.321Z,56.97
2019-02-17T21:07:28.356Z,56.51
2019-02-17T21:10:01.568Z,56.48
2019-02-17T21:12:34.863Z,56.80
2019-02-17T21:15:09.294Z,57.14
2019-02-17T21:17:41.953Z,56.94
2019-02-17T21:20:16.142Z,56.37
2019-02-17T21:22:49.593Z,57.08
2019-02-17T21:25:23.042Z,56.37
2019-02-17T21:27:55.745Z,56.64
2019-02-17T21:30:29.119Z,56.83
2019-02-17T21:33:01.868Z,56.46
2019-02-17T21:35:35.215Z,55.60
2019-02-17T21:38:07.975Z,55.04
2019-02-17T21:40:41.092Z,55.32
2019-02-17T21:43:14.687Z,55.52
2019-02-17T21:45:48.247Z,55.51
2019-02-17T21:48:21.474Z,55.54
2019-02-17T21:50:55.332Z,55.41
2019-02-17T21:53:28.793Z,54.59
2019-02-17T21:56:02.067Z,55.01
2019-02-17T21:58:35.531Z,54.54
2019-02-17T22:01:08.558Z,54.41
2019-02-17T22:03:42.184Z,54.12
2019-02-17T22:06:15.316Z,53.95
2019-02-17T22:08:49.054Z,54.37
2019-02-17T22:11:21.746Z,55.07
2019-02-17T22:13:54.979Z,55.41
2019-02-17T22:16:28.533Z,55.45
2019-02-17T22:19:02.094Z,55.16
2019-02-17T22:21:34.298Z,54.58
2019-02-17T22:24:07.099Z,53.43
2019-02-17T22:26:40.565Z,52.34
2019-02-17T22:29:13.707Z,51.55
2019-02-17T22:31:46.656Z,50.94
2019-02-17T22:34:20.121Z,50.53
2019-02-17T22:36:54.051Z,50.24
2019-02-17T22:39:27.450Z,50.02
2019-02-17T22:42:00.451Z,50.30
2019-02-17T22:44:35.017Z,51.23
2019-02-17T22:47:08.489Z,50.78
2019-02-17T22:49:41.968Z,51.64
2019-02-17T22:52:14.818Z,52.51
2019-02-17T22:54:48.239Z,52.41
2019-02-17T22:57:21.341Z,52.07
2019-02-17T22:59:54.554Z,52.48
2019-02-17T23:02:28.571Z,52.59
2019-02-17T23:05:01.924Z,52.64
2019-02-17T23:07:35.143Z,51.87
2019-02-17T23:10:09.173Z,51.60
2019-02-17T23:12:42.333Z,51.11
2019-02-17T23:15:14.733Z,51.40
2019-02-17T23:17:47.866Z,51.13
2019-02-17T23:20:21.249Z,50.69
2019-02-17T23:22:54.203Z,50.68
2019-02-17T23:25:27.369Z,50.13
2019-02-17T23:28:00.130Z,50.84
2019-02-17T23:30:34.016Z,51.10
2019-02-17T23:33:07.352Z,51.10
2019-02-17T23:35:40.575Z,51.55
2019-02-17T23:38:14.355Z,52.07
2019-02-17T23:40:47.651Z,52.56
2019-02-17T23:43:21.122Z,51.86
2019-02-17T23:45:53.826Z,52.10
2019-02-17T23:48:26.707Z,52.09
2019-02-17T23:50:59.842Z,52.01
2019-02-17T23:53:33.098Z,51.79
2019-02-17T23:56:05.799Z,51.67
2019-02-17T23:58:38.844Z,51.33
